Date,TemperatureHighF,TemperatureAvgF,TemperatureLowF,DewpointHighF,DewpointAvgF,DewpointLowF,HumidityHigh,HumidityAvg,HumidityLow,PressureMaxIn,PressureMinIn,WindSpeedMaxMPH,WindSpeedAvgMPH,GustSpeedMaxMPH,PrecipitationSumIn
2013-2-1,72.1,58.8,49.1,48.7,40.0,30.7,64,50,42,30.24,30.12,4,2,9,0.00
2013-2-2,73.7,59.8,49.6,47.7,41.0,32.1,75,51,34,30.24,30.09,6,1,10,0.00
2013-2-3,73.9,60.1,50.7,49.2,40.9,32.4,81,53,23,30.12,30.00,4,1,8,0.00
2013-2-4,74.9,58.6,45.3,45.5,40.6,36.5,73,54,31,30.12,29.97,6,1,10,0.00
2013-2-5,79.6,62.7,48.6,54.8,48.3,41.5,81,62,32,30.09,29.94,5,-17,9,0.00
2013-2-6,79.2,65.4,56.8,62.6,55.8,52.6,90,73,47,30.06,29.97,3,0,7,0.00
2013-2-7,82.8,70.1,58.5,65.3,58.1,53.7,90,68,40,30.06,29.88,5,-72,12,0.00
2013-2-8,82.2,71.2,63.0,67.6,60.3,50.0,91,71,37,30.00,29.85,5,1,10,0.00
2013-2-9,80.2,69.2,61.3,65.4,57.7,53.0,94,69,43,30.12,29.97,6,2,13,0.00
2013-2-10,76.9,70.3,63.4,58.8,55.2,52.6,74,60,45,30.24,30.09,7,3,12,0.00
2013-2-11,81.8,69.7,60.6,62.7,57.6,55.1,88,67,44,30.18,30.03,6,1,10,0.00
2013-2-12,87.7,72.0,59.5,66.8,60.3,55.8,92,70,36,30.09,29.91,5,-89,10,0.00
2013-2-13,88.3,75.1,65.1,72.0,63.5,57.7,96,70,40,29.97,29.83,7,-47,15,0.00
2013-2-14,78.3,68.0,62.8,70.6,63.7,59.6,93,86,73,29.97,29.85,3,-3,9,1.49
2013-2-15,73.0,65.9,62.9,66.9,62.4,60.3,96,89,73,30.03,29.88,2,0,6,0.13
2013-2-16,73.0,64.8,54.3,61.5,51.9,35.6,94,66,36,30.06,29.85,4,1,10,0.00
2013-2-17,60.4,50.1,42.8,35.9,25.7,19.5,60,40,26,30.30,30.03,5,2,11,0.00
2013-2-18,71.1,57.2,43.7,49.1,35.8,23.0,59,45,34,30.30,30.15,7,2,13,0.00
2013-2-19,81.4,68.1,53.8,63.7,55.1,47.9,89,65,42,30.18,30.03,6,1,11,0.00
2013-2-20,80.8,69.1,61.3,65.9,59.6,54.2,94,74,43,30.09,29.97,4,-151,9,0.00
2013-2-21,82.3,69.8,59.5,67.3,60.7,56.9,94,75,47,30.06,29.97,4,1,8,0.00
2013-2-22,85.0,73.8,63.0,70.7,64.2,60.3,94,74,49,30.06,29.97,5,2,10,0.00
2013-2-23,88.5,76.2,68.2,69.5,65.8,60.9,92,72,42,30.00,29.85,8,-51,15,0.12
2013-2-24,89.0,77.1,69.0,72.0,65.9,58.8,94,71,39,29.97,29.83,5,-272,9,0.00
2013-2-25,88.0,75.0,67.6,71.6,67.1,62.1,93,78,44,29.88,29.74,5,-752,6,0.67
2013-2-26,87.8,76.8,70.5,71.5,67.3,61.7,94,74,43,29.85,29.74,10,-610,22,0.00
2013-2-27,76.6,70.0,65.1,69.9,61.2,54.4,90,75,51,29.94,29.80,3,-600,4,0.12
2013-2-28,73.5,63.8,58.9,61.9,50.4,43.4,91,64,34,29.97,29.85,3,-390,5,0.00